Shadow, Virginia
Current Conditions -  °F | °C
As of 7:54 AM on Saturday 25 Oct 2014 (Local Time) from KPHF Reporting Station
Clear Clear  
Wind Chill: 46°   Ceiling: Unl
Heat Index: 46°   Visibility: 8mi
Dew Point: 40°   Wind: 0mph
Humidity: 79%   Direction: NA
Pressure: 29.98"   Gusts: NA
Location:  37.3533°N, 76.3099°W
Report Text: KPHF 251154Z 00000KT 8SM CLR 08/04 A2998 RMK AO2 RAB27E33 SLP152 P0000 60000 T00780044 10089 20050 51008
Loading
Personal Weather Stations






























Interactive Weather Map
Tropical Storm Tracking
New forecast layout! Learn more

10-Day Weather Forecast

Advertisements
Track Severe Weather on mobile